<?xml version="1.0" encoding="UTF-8" standalone="yes"?>
<gpx xmlns="http://www.topografix.com/GPX/1/1" xmlns:gpxtrx="http://www.garmin.com/xmlschemas/GpxExtensions/v3" xmlns:rcxx="http://www.routeconverter.de/xmlschemas/RouteCatalogExtensions/1.0" xmlns:xsi="http://www.w3.org/2001/XMLSchema-instance" xmlns:gpxtpx="http://www.garmin.com/xmlschemas/TrackPointExtension/v1" xmlns:gpxx="http://www.garmin.com/xmlschemas/WaypointExtension/v1" xmlns:nmea="http://trekbuddy.net/2009/01/gpx/nmea" creator="Generated by Christian Pesch's RouteConverter. See http://www.routeconverter.com" version="1.1">
    <trk>
        <name>Neue Positionsliste 1</name>
        <trkseg>
            <trkpt lon="10.758940113491803" lat="53.69619504344468">
                <ele>13.924554041813689</ele>
                <time>2012-01-01T11:51:39.832Z</time>
                <name>Farchauer Weg 1, 23909 Ratzeburg, Deutschland</name>
            </trkpt>
            <trkpt lon="10.758990645409085" lat="53.6954719322377">
                <ele>12.573008398311517</ele>
                <time>2012-05-13T14:46:35.862Z</time>
                <name>Farchauer Weg 3, 23909 Ratzeburg, Deutschland</name>
            </trkpt>
            <trkpt lon="10.75900673866272" lat="53.69487864208065">
                <ele>11.418246937331789</ele>
                <time>2012-01-01T11:52:38.196Z</time>
                <name>Farchauer Weg 3, 23909 Ratzeburg, Deutschland</name>
            </trkpt>
            <trkpt lon="10.758389830589294" lat="53.69425927996793">
                <ele>14.809040773719618</ele>
                <time>2012-01-01T11:53:35.992Z</time>
                <name>Farchauer Weg 3, 23909 Ratzeburg, Deutschland</name>
            </trkpt>
            <trkpt lon="10.757598578929901" lat="53.69362720359635">
                <ele>16.089367412798747</ele>
                <time>2012-01-01T11:54:39.246Z</time>
                <name>Farchauer Weg 14, 23909 Ratzeburg, Deutschland</name>
            </trkpt>
            <trkpt lon="10.757019221782684" lat="53.69304911538975">
                <ele>21.150773424957396</ele>
                <time>2012-01-01T11:55:33.277Z</time>
                <name>Farchauer Weg 14, 23909 Ratzeburg, Deutschland</name>
            </trkpt>
            <trkpt lon="10.75660616159439" lat="53.69246784287048">
                <ele>23.115898729034626</ele>
                <time>2012-01-01T11:56:23.952Z</time>
                <name>Farchauer Weg 14, 23909 Ratzeburg, Deutschland</name>
            </trkpt>
            <trkpt lon="10.756552517414093" lat="53.69232808216081">
                <ele>23.30740477321103</ele>
                <time>2012-01-01T11:56:34.912Z</time>
                <name>Farchauer Weg 14, 23909 Ratzeburg, Deutschland</name>
            </trkpt>
            <trkpt lon="10.756504237651825" lat="53.69176585825527">
                <ele>22.14966614769276</ele>
                <time>2012-01-01T11:57:20.938Z</time>
                <name>Farchauer Weg 14, 23909 Ratzeburg, Deutschland</name>
            </trkpt>
            <trkpt lon="10.755983889102936" lat="53.691146450344704">
                <ele>24.337920226878452</ele>
                <time>2012-01-01T11:59:14.747Z</time>
                <name>Farchauer Weg 14, 23909 Ratzeburg, Deutschland</name>
            </trkpt>
            <trkpt lon="10.755664706230618" lat="53.690802735993465">
                <ele>25.30713339214951</ele>
                <time>2012-01-01T12:00:19.930Z</time>
                <name>Farchauer Weg 14, 23909 Ratzeburg, Deutschland</name>
            </trkpt>
            <trkpt lon="10.755248963832855" lat="53.690368206975485">
                <ele>24.291209189415515</ele>
                <time>2012-01-01T12:01:45.299Z</time>
                <name>Farchauer Weg 14, 23909 Ratzeburg, Deutschland</name>
            </trkpt>
            <trkpt lon="10.75464278459549" lat="53.690066435268115">
                <ele>26.394316551303312</ele>
                <time>2012-01-01T12:03:03.955Z</time>
                <name>Farchauer Weg 14, 23909 Ratzeburg, Deutschland</name>
            </trkpt>
            <trkpt lon="10.754208266735077" lat="53.68962489171421">
                <ele>26.787457042015898</ele>
                <time>2012-01-01T12:04:30.635Z</time>
                <name>Farchauer Weg 14, 23909 Ratzeburg, Deutschland</name>
            </trkpt>
            <trkpt lon="10.754012465477444" lat="53.689351050411204">
                <ele>27.660675430274555</ele>
                <time>2012-01-01T12:05:21.061Z</time>
                <name>Farchauer Weg 14, 23909 Ratzeburg, Deutschland</name>
            </trkpt>
            <trkpt lon="10.75385957956314" lat="53.68904992518173">
                <ele>27.405393797051627</ele>
                <time>2012-01-01T12:05:27.072Z</time>
                <name>Farchauer Weg 14, 23909 Ratzeburg, Deutschland</name>
            </trkpt>
            <trkpt lon="10.75362354516983" lat="53.68856707429348">
                <ele>23.51802211990373</ele>
                <time>2012-01-01T12:07:38.717Z</time>
                <name>Farchauer Weg, 23909 Ratzeburg, Deutschland</name>
            </trkpt>
            <trkpt lon="10.75339287519455" lat="53.68836376699978">
                <ele>22.494458790456815</ele>
                <time>2012-01-01T12:08:20.135Z</time>
                <name>Farchauer Weg, 23909 Ratzeburg, Deutschland</name>
            </trkpt>
            <trkpt lon="10.753052234650113" lat="53.68788978461696">
                <ele>24.58292832511664</ele>
                <time>2012-01-01T12:09:47.209Z</time>
                <name>Farchauer Weg, 23909 Ratzeburg, Deutschland</name>
            </trkpt>
            <trkpt lon="10.752995908260345" lat="53.687798313427216">
                <ele>25.07363559881628</ele>
                <time>2012-01-01T12:10:02.586Z</time>
                <name>Farchauer Weg, 23909 Ratzeburg, Deutschland</name>
            </trkpt>
            <trkpt lon="10.752818882465363" lat="53.68727415024378">
                <ele>26.59280403498497</ele>
                <time>2012-01-01T12:11:31.993Z</time>
                <name>Farchauer Weg, 23909 Ratzeburg, Deutschland</name>
            </trkpt>
            <trkpt lon="10.753087103366852" lat="53.68631475587991">
                <ele>24.093604393756923</ele>
                <time>2012-01-01T12:14:14.639Z</time>
                <name>Farchauer Weg, 23909 Ratzeburg, Deutschland</name>
            </trkpt>
            <trkpt lon="10.753089785576321" lat="53.68626962630261">
                <ele>24.369759224841832</ele>
                <time>2012-01-01T12:14:25.377Z</time>
                <name>Farchauer Weg, 23909 Ratzeburg, Deutschland</name>
            </trkpt>
            <trkpt lon="10.753022730350494" lat="53.68606378487316">
                <ele>26.703737528965444</ele>
                <time>2012-01-01T12:14:57.095Z</time>
                <name>Farchauer Weg, 23909 Ratzeburg, Deutschland</name>
            </trkpt>
            <trkpt lon="10.753068327904202" lat="53.6858820497798">
                <ele>27.34520930659596</ele>
                <time>2012-01-01T12:15:20.711Z</time>
                <name>Farchauer Weg, 23909 Ratzeburg, Deutschland</name>
            </trkpt>
            <trkpt lon="10.753113925457" lat="53.6856762064559">
                <ele>27.64890745547607</ele>
                <time>2012-01-01T12:16:02.542Z</time>
                <name>Farchauer Weg, 23909 Ratzeburg, Deutschland</name>
            </trkpt>
            <trkpt lon="10.753162205219269" lat="53.684996347172635">
                <ele>29.364934394807552</ele>
                <time>2012-01-01T12:17:56.341Z</time>
                <name>Farchauer Weg, 23909 Ratzeburg, Deutschland</name>
            </trkpt>
            <trkpt lon="10.752298533916473" lat="53.68435777775615">
                <ele>43.10346334951857</ele>
                <time>2012-01-01T12:20:14.301Z</time>
                <name>Farchauer Weg, 23909 Ratzeburg, Deutschland</name>
            </trkpt>
            <trkpt lon="10.752577483654022" lat="53.684227521114">
                <ele>41.80723733529838</ele>
                <time>2012-01-01T12:20:48.101Z</time>
                <name>Farchauer Weg, 23909 Ratzeburg, Deutschland</name>
            </trkpt>
            <trkpt lon="10.752797424793243" lat="53.68405596297056">
                <ele>38.803363762919595</ele>
                <time>2012-01-01T12:21:23.984Z</time>
                <name>Farchauer Weg, 23909 Ratzeburg, Deutschland</name>
            </trkpt>
            <trkpt lon="10.752926170825958" lat="53.68362071047081">
                <ele>36.16669987723371</ele>
                <time>2012-01-01T12:22:37.535Z</time>
                <name>Farchauer Weg, 23909 Ratzeburg, Deutschland</name>
            </trkpt>
            <trkpt lon="10.752958357334137" lat="53.68328394267638">
                <ele>34.358277180251136</ele>
                <time>2012-01-01T12:24:34.439Z</time>
                <name>Farchauer Weg 9, 23909 Fredeburg, Deutschland</name>
            </trkpt>
            <trkpt lon="10.752958357334137" lat="53.68291857834403">
                <ele>28.505178458196397</ele>
                <time>2012-01-01T12:26:41.066Z</time>
                <name>Farchauer Weg 9, 23909 Fredeburg, Deutschland</name>
            </trkpt>
            <trkpt lon="10.752802789211273" lat="53.68248649121665">
                <ele>24.2745960582239</ele>
                <time>2012-01-01T12:29:14.200Z</time>
                <name>Farchauer Weg 9, 23909 Fredeburg, Deutschland</name>
            </trkpt>
            <trkpt lon="10.75264185667038" lat="53.682022628042965">
                <ele>21.778402416222733</ele>
                <time>2012-01-01T12:36:37.935Z</time>
                <name>Farchauer Weg 9, 23909 Fredeburg, Deutschland</name>
            </trkpt>
            <trkpt lon="10.752421915531158" lat="53.68115843097047">
                <ele>20.302127577857938</ele>
                <time>2012-01-01T12:50:16.826Z</time>
                <name>Farchauer Weg 9, 23909 Fredeburg, Deutschland</name>
            </trkpt>
            <trkpt lon="10.752346813678741" lat="53.68077080740532">
                <ele>21.428391472523614</ele>
                <time>2012-01-01T12:56:22.399Z</time>
                <name>Farchauer Weg 9, 23909 Fredeburg, Deutschland</name>
            </trkpt>
            <trkpt lon="10.752282440662384" lat="53.679611092649694">
                <ele>31.63261752525337</ele>
                <time>2012-01-01T13:14:29.568Z</time>
                <name>Farchauer Weg 9, 23909 Fredeburg, Deutschland</name>
            </trkpt>
            <trkpt lon="10.752851068973541" lat="53.67897244157467">
                <ele>28.68815142266149</ele>
                <time>2012-01-01T13:25:46.401Z</time>
                <name>Farchauer Weg 9, 23909 Fredeburg, Deutschland</name>
            </trkpt>
            <trkpt lon="10.75314074754715" lat="53.678715071986055">
                <ele>27.90554207158424</ele>
                <time>2012-01-01T13:30:36.600Z</time>
                <name>Farchau-Schloß, 23909 Ratzeburg, Deutschland</name>
            </trkpt>
            <trkpt lon="10.753274857997894" lat="53.67838144240096">
                <ele>28.47930115909724</ele>
                <time>2012-01-01T13:41:48.182Z</time>
                <name>Farchau-Schloß, 23909 Ratzeburg, Deutschland</name>
            </trkpt>
            <trkpt lon="10.753462612628937" lat="53.678031922858416">
                <ele>29.309714058886545</ele>
                <time>2012-01-01T13:53:46.493Z</time>
                <name>Farchau-Schloß, 23909 Ratzeburg, Deutschland</name>
            </trkpt>
            <trkpt lon="10.754031240940094" lat="53.67758707560974">
                <ele>32.21944738710036</ele>
                <time>2012-01-01T14:11:59.925Z</time>
                <name>Farchau-Schloß, 23909, Deutschland</name>
            </trkpt>
            <trkpt lon="10.754819810390472" lat="53.67722166185516">
                <ele>29.527483233166308</ele>
                <time>2012-01-01T14:31:22.796Z</time>
                <name>Farchau-Schloß, 23909, Deutschland</name>
            </trkpt>
            <trkpt lon="10.754897594452359" lat="53.67719558769666">
                <ele>29.10672542685451</ele>
                <time>2012-01-01T14:33:06.636Z</time>
                <name>Farchau-Schloß, 23909, Deutschland</name>
            </trkpt>
            <trkpt lon="10.75564056634903" lat="53.67700558962197">
                <ele>20.663651911754002</ele>
                <time>2012-01-01T14:48:57.305Z</time>
                <name>Farchauer Weg 9, 23909 Fredeburg, Deutschland</name>
            </trkpt>
            <trkpt lon="10.75587123632431" lat="53.676805404063856">
                <ele>19.42574932039677</ele>
                <time>2012-01-01T14:56:38.427Z</time>
                <name>Farchauer Weg 9, 23909 Fredeburg, Deutschland</name>
            </trkpt>
            <trkpt lon="10.755962431430817" lat="53.67681811428642">
                <ele>18.302377213526846</ele>
                <time>2012-01-01T15:17:19.280Z</time>
                <name>Farchauer Weg 9, 23909 Fredeburg, Deutschland</name>
            </trkpt>
            <trkpt lon="10.756810009479523" lat="53.67707549546587">
                <ele>9.274751172172042</ele>
                <time>2012-01-01T18:37:58.095Z</time>
                <name>Farchauer Weg 9, 23909 Fredeburg, Deutschland</name>
            </trkpt>
            <trkpt lon="10.757475197315216" lat="53.6770119447036">
                <ele>8.137960308509534</ele>
                <time>2012-01-01T23:20:03.992Z</time>
                <name>Farchauer Weg 9, 23909 Fredeburg, Deutschland</name>
            </trkpt>
            <trkpt lon="10.757990181446075" lat="53.67696110402471">
                <ele>8.907446778682324</ele>
                <time>2012-01-02T02:58:39.114Z</time>
                <name>Farchauer Weg 9, 23909 Fredeburg, Deutschland</name>
            </trkpt>
            <trkpt lon="10.758660733699799" lat="53.67686577758645">
                <ele>10.26995327140949</ele>
                <time>2012-01-02T07:38:37.236Z</time>
                <name>Farchauer Mühle, 23909 Schmilau, Deutschland</name>
            </trkpt>
            <trkpt lon="10.759095251560211" lat="53.676814936731155">
                <ele>11.043205957168205</ele>
                <time>2012-01-02T10:38:26.822Z</time>
                <name>Farchauer Mühle, 23909 Schmilau, Deutschland</name>
            </trkpt>
            <trkpt lon="10.76060801744461" lat="53.67668465675941">
                <ele>14.698776965135828</ele>
                <time>2012-01-02T20:59:26.457Z</time>
                <name>Farchauer Mühle, 23909 Schmilau, Deutschland</name>
            </trkpt>
            <trkpt lon="10.760278105736234" lat="53.67736717378674">
                <ele>13.221639445642845</ele>
                <time>2012-01-03T05:05:17.216Z</time>
                <name>Farchauer Mühle, 23909 Schmilau, Deutschland</name>
            </trkpt>
            <trkpt lon="10.760173499584198" lat="53.67759978559646">
                <ele>12.735531341963698</ele>
                <time>2012-01-03T07:49:59.961Z</time>
                <name>Farchauer Mühle, 23909 Schmilau, Deutschland</name>
            </trkpt>
            <trkpt lon="10.75985699892044" lat="53.6775966081002">
                <ele>11.193152368591077</ele>
                <time>2012-01-03T09:54:14.152Z</time>
                <name>Farchauer Mühle, 23909 Schmilau, Deutschland</name>
            </trkpt>
            <trkpt lon="10.759578049182892" lat="53.67806052002108">
                <ele>9.797633630254232</ele>
                <time>2012-01-03T15:30:15.092Z</time>
                <name>Farchauer Mühle, 23909 Schmilau, Deutschland</name>
            </trkpt>
            <trkpt lon="10.758843123912811" lat="53.67820986044269">
                <ele>5.837274705481896</ele>
                <time>2012-01-03T20:38:55.098Z</time>
                <name>Farchauer Mühle, 23909 Schmilau, Deutschland</name>
            </trkpt>
            <trkpt lon="10.758971869945526" lat="53.67836555521217">
                <ele>5.878576681543768</ele>
                <time>2012-01-03T22:41:21.079Z</time>
                <name>Farchauer Mühle, 23909 Schmilau, Deutschland</name>
            </trkpt>
            <trkpt lon="10.758971869945526" lat="53.67868965268234">
                <ele>6.681680776925091</ele>
                <time>2012-01-04T02:26:06.375Z</time>
                <name>Farchauer Mühle, 23909 Schmilau, Deutschland</name>
            </trkpt>
            <trkpt lon="10.759041607379913" lat="53.67915355256494">
                <ele>8.41173785665768</ele>
                <time>2012-01-04T07:49:05.405Z</time>
                <name>Farchauer Mühle, 23909 Schmilau, Deutschland</name>
            </trkpt>
            <trkpt lon="10.759041607379913" lat="53.67960473796095">
                <ele>8.449501991271289</ele>
                <time>2012-01-04T13:01:58.653Z</time>
                <name>Farchauer Mühle, 23909 Schmilau, Deutschland</name>
            </trkpt>
            <trkpt lon="10.759315192699432" lat="53.67967463949126">
                <ele>9.895519141880843</ele>
                <time>2012-01-04T15:10:19.302Z</time>
                <name>Farchauer Mühle, 23909 Schmilau, Deutschland</name>
            </trkpt>
            <trkpt lon="10.759342014789581" lat="53.68000190420378">
                <ele>10.132814709347782</ele>
                <time>2012-01-04T19:12:33.812Z</time>
                <name>Farchauer Mühle, 23909 Schmilau, Deutschland</name>
            </trkpt>
            <trkpt lon="10.759433209896088" lat="53.68010357815985">
                <ele>10.653306653317014</ele>
                <time>2012-01-04T20:35:39.673Z</time>
                <name>Farchauer Mühle, 23909 Schmilau, Deutschland</name>
            </trkpt>
            <trkpt lon="10.75988918542862" lat="53.68012899661051">
                <ele>13.019964080065726</ele>
                <time>2012-01-04T23:58:49.516Z</time>
                <name>Farchauer Mühle, 23909 Schmilau, Deutschland</name>
            </trkpt>
            <trkpt lon="10.760586559772491" lat="53.6803323436636">
                <ele>16.837696811664053</ele>
                <time>2012-01-05T05:44:11.239Z</time>
                <name>Farchauer Mühle, 23909 Schmilau, Deutschland</name>
            </trkpt>
            <trkpt lon="10.761096179485321" lat="53.68076445289169">
                <ele>22.69950584124935</ele>
                <time>2012-01-05T12:18:28.400Z</time>
                <name>Farchauer Mühle, 23909 Schmilau, Deutschland</name>
            </trkpt>
            <trkpt lon="10.761294662952423" lat="53.6809995692858">
                <ele>23.631815793525472</ele>
                <time>2012-01-05T15:27:19.928Z</time>
                <name>Röpersberg 41, 23909 Ratzeburg, Deutschland</name>
            </trkpt>
            <trkpt lon="10.761680901050568" lat="53.68115207651531">
                <ele>24.335827746162373</ele>
                <time>2012-01-05T19:08:00.885Z</time>
                <name>Röpersberg 41, 23909 Ratzeburg, Deutschland</name>
            </trkpt>
            <trkpt lon="10.7618847489357" lat="53.681371304690444">
                <ele>26.083058527071</ele>
                <time>2012-01-05T22:32:36.468Z</time>
                <name>Röpersberg 41, 23909 Ratzeburg, Deutschland</name>
            </trkpt>
            <trkpt lon="10.762040317058563" lat="53.68182882068409">
                <ele>26.875259601028</ele>
                <time>2012-01-06T04:53:56.928Z</time>
                <name>Röpersberg 41, 23909 Ratzeburg, Deutschland</name>
            </trkpt>
            <trkpt lon="10.76211541891098" lat="53.682353051650054">
                <ele>23.53577931113348</ele>
                <time>2012-01-06T11:21:46.919Z</time>
                <name>Röpersberg 41, 23909 Ratzeburg, Deutschland</name>
            </trkpt>
            <trkpt lon="10.762201249599457" lat="53.682623107479856">
                <ele>23.74603084680232</ele>
                <time>2012-01-06T16:02:44.493Z</time>
                <name>Röpersberg 41, 23909 Ratzeburg, Deutschland</name>
            </trkpt>
            <trkpt lon="10.762093961238861" lat="53.68298212019589">
                <ele>22.73358950036845</ele>
                <time>2012-01-06T21:03:04.433Z</time>
                <name>Röpersberg 41, 23909 Ratzeburg, Deutschland</name>
            </trkpt>
            <trkpt lon="10.76214224100113" lat="53.683722375692284">
                <ele>23.38610616211948</ele>
                <time>2012-01-07T07:13:16.237Z</time>
                <name>Waldesruher Weg 10, 23909 Ratzeburg, Deutschland</name>
            </trkpt>
            <trkpt lon="10.7621368765831" lat="53.68388758115082">
                <ele>23.084709774912067</ele>
                <time>2012-01-07T09:29:22.417Z</time>
                <name>Waldesruher Weg 10, 23909 Ratzeburg, Deutschland</name>
            </trkpt>
            <trkpt lon="10.762072503566742" lat="53.68435460077104">
                <ele>21.521696499904266</ele>
                <time>2012-01-07T15:55:08.544Z</time>
                <name>Waldesruher Weg 10, 23909 Ratzeburg, Deutschland</name>
            </trkpt>
            <trkpt lon="10.762233436107635" lat="53.68506306282302">
                <ele>22.17408930743661</ele>
                <time>2012-01-08T01:43:58.578Z</time>
                <name>Waldesruher Weg 10, 23909 Ratzeburg, Deutschland</name>
            </trkpt>
            <trkpt lon="10.762201249599457" lat="53.68560313799532">
                <ele>20.726934318174543</ele>
                <time>2012-01-08T09:09:06.534Z</time>
                <name>Waldesruher Weg 10, 23909 Ratzeburg, Deutschland</name>
            </trkpt>
            <trkpt lon="10.76237291097641" lat="53.68609873029435">
                <ele>20.75639349532047</ele>
                <time>2012-01-08T16:05:51.725Z</time>
                <name>Waldesruher Weg 10, 23909 Ratzeburg, Deutschland</name>
            </trkpt>
            <trkpt lon="10.762759149074554" lat="53.68647042069093">
                <ele>21.92364110414269</ele>
                <time>2012-01-08T22:05:34.780Z</time>
                <name>Waldesruher Weg 10, 23909 Ratzeburg, Deutschland</name>
            </trkpt>
            <trkpt lon="10.763542354106903" lat="53.68650536577337">
                <ele>25.833158000715184</ele>
                <time>2012-01-09T04:18:46.522Z</time>
                <name>Waldesruher Weg 10, 23909 Ratzeburg, Deutschland</name>
            </trkpt>
            <trkpt lon="10.763960778713226" lat="53.68703906888014">
                <ele>18.82532486321451</ele>
                <time>2012-01-09T12:27:01.591Z</time>
                <name>Waldesruher Weg 10, 23909 Ratzeburg, Deutschland</name>
            </trkpt>
            <trkpt lon="10.764969289302826" lat="53.68709942773341">
                <ele>17.65218584576629</ele>
                <time>2012-01-09T20:59:45.254Z</time>
                <name>Waldesruher Weg 10, 23909 Ratzeburg, Deutschland</name>
            </trkpt>
            <trkpt lon="10.76538771390915" lat="53.687128018740296">
                <ele>16.565812473263843</ele>
                <time>2012-01-10T00:24:26.322Z</time>
                <name>Waldesruher Weg 10, 23909 Ratzeburg, Deutschland</name>
            </trkpt>
            <trkpt lon="10.76612800359726" lat="53.686994593879625">
                <ele>18.242223995913797</ele>
                <time>2012-01-10T06:49:27.072Z</time>
                <name>Waldesruher Weg 10, 23909 Ratzeburg, Deutschland</name>
            </trkpt>
            <trkpt lon="10.766406953334808" lat="53.686546664469525">
                <ele>24.99669259610944</ele>
                <time>2012-01-10T13:45:01.649Z</time>
                <name>Waldesruher Weg 10, 23909 Ratzeburg, Deutschland</name>
            </trkpt>
            <trkpt lon="10.766927301883698" lat="53.68637193893976">
                <ele>26.658491514483558</ele>
                <time>2012-01-10T18:34:18.840Z</time>
                <name>Waldesruher Weg 10, 23909 Ratzeburg, Deutschland</name>
            </trkpt>
            <trkpt lon="10.767908990383148" lat="53.68693105808308">
                <ele>19.85982065087272</ele>
                <time>2012-01-11T05:47:45.000Z</time>
                <name>Waldesruher Weg 10, 23909 Ratzeburg, Deutschland</name>
            </trkpt>
            <trkpt lon="10.76963096857071" lat="53.68764900700514">
                <ele>22.076216458238626</ele>
                <time>2012-01-12T13:04:09.231Z</time>
                <name>Waldesruher Weg 10, 23909 Ratzeburg, Deutschland</name>
            </trkpt>
            <trkpt lon="10.770945250988007" lat="53.688227169362406">
                <ele>22.77509915340662</ele>
                <time>2012-01-14T02:22:33.500Z</time>
                <name>Waldesruher Weg 10, 23909 Ratzeburg, Deutschland</name>
            </trkpt>
            <trkpt lon="10.77185183763504" lat="53.68835741363298">
                <ele>26.012638013219746</ele>
                <time>2012-01-14T19:28:42.632Z</time>
                <name>Waldesruher Weg 8, 23909 Ratzeburg, Deutschland</name>
            </trkpt>
            <trkpt lon="10.772897899150848" lat="53.688681434216775">
                <ele>20.400690619496473</ele>
                <time>2012-01-15T17:33:25.207Z</time>
                <name>Waldesruher Weg 8, 23909 Ratzeburg, Deutschland</name>
            </trkpt>
            <trkpt lon="10.774287283420563" lat="53.688948272825264">
                <ele>23.265132610466534</ele>
                <time>2012-01-16T20:52:53.778Z</time>
                <name>Waldesruher Weg 8, 23909 Ratzeburg, Deutschland</name>
            </trkpt>
            <trkpt lon="10.775204598903656" lat="53.68917063704062">
                <ele>25.364181455510963</ele>
                <time>2012-01-17T15:25:19.640Z</time>
                <name>Waldesruher Weg 8, 23909 Ratzeburg, Deutschland</name>
            </trkpt>
            <trkpt lon="10.77583760023117" lat="53.689453355561454">
                <ele>23.2574519261488</ele>
                <time>2012-01-18T06:14:42.028Z</time>
                <name>Waldesruher Weg 8, 23909 Ratzeburg, Deutschland</name>
            </trkpt>
            <trkpt lon="10.776518881320953" lat="53.68970748294883">
                <ele>20.195594593863547</ele>
                <time>2012-01-18T21:18:03.177Z</time>
                <name>Waldesruher Weg 8, 23909 Ratzeburg, Deutschland</name>
            </trkpt>
            <trkpt lon="10.77761322259903" lat="53.68993619628604">
                <ele>25.450842255126314</ele>
                <time>2012-01-19T19:00:34.294Z</time>
                <name>Waldesruher Weg 8, 23909 Ratzeburg, Deutschland</name>
            </trkpt>
            <trkpt lon="10.77809602022171" lat="53.69071762414765">
                <ele>14.939788700760062</ele>
                <time>2012-01-20T21:14:50.273Z</time>
                <name>Waldesruher Weg 6, 23909 Ratzeburg, Deutschland</name>
            </trkpt>
            <trkpt lon="10.778155028820038" lat="53.690765271717474">
                <ele>14.72344945549922</ele>
                <time>2012-01-20T23:06:41.280Z</time>
                <name>Waldesruher Weg 4-6, 23909 Ratzeburg, Deutschland</name>
            </trkpt>
            <trkpt lon="10.779163539409637" lat="53.69121315625231">
                <ele>18.002238736861166</ele>
                <time>2012-01-21T22:27:33.500Z</time>
                <name>Am Mühlengraben 33, 23909 Ratzeburg, Deutschland</name>
            </trkpt>
            <trkpt lon="10.779270827770233" lat="53.69138150878164">
                <ele>16.10624684152088</ele>
                <time>2012-01-22T02:01:37.235Z</time>
                <name>Am Mühlengraben 33, 23909 Ratzeburg, Deutschland</name>
            </trkpt>
            <trkpt lon="10.779292285442352" lat="53.69150856684813">
                <ele>14.379607510245641</ele>
                <time>2012-01-22T04:40:40.592Z</time>
                <name>Am Mühlengraben 33, 23909 Ratzeburg, Deutschland</name>
            </trkpt>
            <trkpt lon="10.779158174991608" lat="53.69191515008405">
                <ele>9.35356305640794</ele>
                <time>2012-01-22T13:51:38.853Z</time>
                <name>Kleinbahndamm, 23909 Ratzeburg, Deutschland</name>
            </trkpt>
            <trkpt lon="10.778932869434357" lat="53.69224549607207">
                <ele>5.453429629885183</ele>
                <time>2012-01-22T21:40:16.095Z</time>
                <name>Kleinbahndamm, 23909 Ratzeburg, Deutschland</name>
            </trkpt>
            <trkpt lon="10.778702199459076" lat="53.6927410101938">
                <ele>2.443867908003647</ele>
                <time>2012-01-23T08:30:50.809Z</time>
                <name>Kleinbahndamm, 23909 Ratzeburg, Deutschland</name>
            </trkpt>
            <trkpt lon="10.77833205461502" lat="53.693334984179565">
                <ele>1.5</ele>
                <time>2012-01-23T22:04:38.821Z</time>
                <name>Kleinbahndamm, 23909 Ratzeburg, Deutschland</name>
            </trkpt>
            <trkpt lon="10.77786535024643" lat="53.69387177698957">
                <ele>1.5</ele>
                <time>2012-01-24T11:00:51.349Z</time>
                <name>Kleinbahndamm, 23909 Ratzeburg, Deutschland</name>
            </trkpt>
            <trkpt lon="10.776733458042145" lat="53.69478653239794">
                <ele>4.296500231767274</ele>
                <time>2012-01-25T11:19:15.236Z</time>
                <name>Kleinbahndamm, 23909 Ratzeburg, Deutschland</name>
            </trkpt>
            <trkpt lon="10.776534974575043" lat="53.69489452304403">
                <ele>5.1317388287114705</ele>
                <time>2012-01-25T14:44:36.471Z</time>
                <name>Kleinbahndamm, 23909 Ratzeburg, Deutschland</name>
            </trkpt>
            <trkpt lon="10.776304304599762" lat="53.69499298486223">
                <ele>5.8975013104555405</ele>
                <time>2012-01-25T18:21:17.974Z</time>
                <name>Kleinbahndamm, 23909 Ratzeburg, Deutschland</name>
            </trkpt>
            <trkpt lon="10.776470601558685" lat="53.69515179376116">
                <ele>5.692421626928211</ele>
                <time>2012-01-25T22:21:34.185Z</time>
                <name>Palisadenweg, 23909 Ratzeburg, Deutschland</name>
            </trkpt>
            <trkpt lon="10.77661544084549" lat="53.695247078812926">
                <ele>5.543245171686464</ele>
                <time>2012-01-26T01:06:17.884Z</time>
                <name>Palisadenweg, 23909 Ratzeburg, Deutschland</name>
            </trkpt>
            <trkpt lon="10.776803195476532" lat="53.69530107357988">
                <ele>5.186070824268569</ele>
                <time>2012-01-26T03:41:59.377Z</time>
                <name>Palisadenweg, 23909 Ratzeburg, Deutschland</name>
            </trkpt>
            <trkpt lon="10.777226984500885" lat="53.69554563724518">
                <ele>4.803610604207499</ele>
                <time>2012-01-26T11:12:47.234Z</time>
                <name>Palisadenweg, 23909 Ratzeburg, Deutschland</name>
            </trkpt>
            <trkpt lon="10.77735036611557" lat="53.69565680207787">
                <ele>4.978600528639162</ele>
                <time>2012-01-26T14:03:50.413Z</time>
                <name>Palisadenweg, 23909 Ratzeburg, Deutschland</name>
            </trkpt>
            <trkpt lon="10.77735036611557" lat="53.69584736967952">
                <ele>5.50302445072437</ele>
                <time>2012-01-26T18:08:43.369Z</time>
                <name>Palisadenweg, 23909 Ratzeburg, Deutschland</name>
            </trkpt>
            <trkpt lon="10.777259171009064" lat="53.6960061753552">
                <ele>5.559940532393638</ele>
                <time>2012-01-26T21:44:18.989Z</time>
                <name>Palisadenweg, 23909 Ratzeburg, Deutschland</name>
            </trkpt>
            <trkpt lon="10.777248442173004" lat="53.696218974021306">
                <ele>5.639695744193434</ele>
                <time>2012-01-27T02:17:53.327Z</time>
                <name>Palisadenweg, 23909 Ratzeburg, Deutschland</name>
            </trkpt>
            <trkpt lon="10.77736645936966" lat="53.696549286238024">
                <ele>5.637676675148783</ele>
                <time>2012-01-27T09:31:46.944Z</time>
                <name>Palisadenweg, 23909 Ratzeburg, Deutschland</name>
            </trkpt>
            <trkpt lon="10.777382552623749" lat="53.69689865210792">
                <ele>5.958553738225226</ele>
                <time>2012-01-27T17:00:53.519Z</time>
                <name>Palisadenweg, 23909 Ratzeburg, Deutschland</name>
            </trkpt>
            <trkpt lon="10.777323544025421" lat="53.6972575431185">
                <ele>6.570938611135972</ele>
                <time>2012-01-28T00:44:15.832Z</time>
                <name>Palisadenweg, 23909 Ratzeburg, Deutschland</name>
            </trkpt>
            <trkpt lon="10.777173340320587" lat="53.6978482774103">
                <ele>7.865742312514634</ele>
                <time>2012-01-28T13:30:47.067Z</time>
                <name>Palisadenweg, 23909 Ratzeburg, Deutschland</name>
            </trkpt>
            <trkpt lon="10.777194797992706" lat="53.698219864088">
                <ele>8.412695432185949</ele>
                <time>2012-01-28T21:27:49.663Z</time>
                <name>Seestraße 10, 23909 Ratzeburg, Deutschland</name>
            </trkpt>
            <trkpt lon="10.777226984500885" lat="53.698308790327836">
                <ele>8.443755296127641</ele>
                <time>2012-01-29T01:04:52.094Z</time>
                <name>Seestraße 10, 23909 Ratzeburg, Deutschland</name>
            </trkpt>
            <trkpt lon="10.77733427286148" lat="53.698369133026425">
                <ele>8.182536962089594</ele>
                <time>2012-01-29T04:34:11.546Z</time>
                <name>Seestraße 10, 23909 Ratzeburg, Deutschland</name>
            </trkpt>
            <trkpt lon="10.777296721935272" lat="53.69846441079304">
                <ele>8.54638693630765</ele>
                <time>2012-01-29T09:22:48.904Z</time>
                <name>Seestraße 10, 23909 Ratzeburg, Deutschland</name>
            </trkpt>
            <trkpt lon="10.777243077754974" lat="53.69852157735331">
                <ele>8.876705730039626</ele>
                <time>2012-01-29T11:00:12.409Z</time>
                <name>Seestraße 10, 23909 Ratzeburg, Deutschland</name>
            </trkpt>
            <trkpt lon="10.7771036028862" lat="53.69859144748531">
                <ele>9.546503574432032</ele>
                <time>2012-01-29T14:41:52.316Z</time>
                <name>Seestraße 8, 23909 Ratzeburg, Deutschland</name>
            </trkpt>
            <trkpt lon="10.777178704738617" lat="53.698772474106555">
                <ele>9.710600796710802</ele>
                <time>2012-01-29T22:31:39.299Z</time>
                <name>Seestraße 8, 23909 Ratzeburg, Deutschland</name>
            </trkpt>
            <trkpt lon="10.777312815189362" lat="53.69899161055291">
                <ele>9.75373064528018</ele>
                <time>2012-01-30T07:47:59.507Z</time>
                <name>Königsdamm 990, 23909 Ratzeburg, Deutschland</name>
            </trkpt>
            <trkpt lon="10.777232348918915" lat="53.699055128150164">
                <ele>10.1958514523</ele>
                <time>2012-01-30T10:57:36.877Z</time>
                <name>Langenbrücker Straße 17, 23909 Ratzeburg, Deutschland</name>
            </trkpt>
            <trkpt lon="10.776781737804413" lat="53.69910594215896">
                <ele>11.940005085613771</ele>
                <time>2012-01-30T21:47:07.807Z</time>
                <name>Am Wall 1, 23909 Ratzeburg, Deutschland</name>
            </trkpt>
            <trkpt lon="10.776830017566681" lat="53.69937906640515">
                <ele>11.247221284127148</ele>
                <time>2012-01-31T08:42:27.224Z</time>
                <name>Am Wall 1, 23909 Ratzeburg, Deutschland</name>
            </trkpt>
            <trkpt lon="10.77686220407486" lat="53.69953785875368">
                <ele>10.668809800532909</ele>
                <time>2012-01-31T15:04:06.298Z</time>
                <name>Am Wall 1, 23909 Ratzeburg, Deutschland</name>
            </trkpt>
            <trkpt lon="10.77684611082077" lat="53.69967124386917">
                <ele>10.298288192554585</ele>
                <time>2012-01-31T20:20:02.406Z</time>
                <name>Am Wall 1, 23909 Ratzeburg, Deutschland</name>
            </trkpt>
            <trkpt lon="10.776771008968353" lat="53.69986496911294">
                <ele>9.820322862764003</ele>
                <time>2012-02-01T04:14:23.646Z</time>
                <name>Am Wall 1, 23909 Ratzeburg, Deutschland</name>
            </trkpt>
            <trkpt lon="10.776808559894562" lat="53.699953891873925">
                <ele>9.476875179574865</ele>
                <time>2012-02-01T08:59:47.395Z</time>
                <name>Am Wall 3, 23909 Ratzeburg, Deutschland</name>
            </trkpt>
            <trkpt lon="10.776883661746979" lat="53.70004281445329">
                <ele>9.148093488522434</ele>
                <time>2012-02-01T11:47:46.265Z</time>
                <name>Am Wall 3, 23909 Ratzeburg, Deutschland</name>
            </trkpt>
            <trkpt lon="10.7768514752388" lat="53.700055517663145">
                <ele>9.16728471263262</ele>
                <time>2012-02-01T16:00:28.629Z</time>
                <name>Am Wall 3, 23909 Ratzeburg, Deutschland</name>
            </trkpt>
            <trkpt lon="10.777017772197723" lat="53.700106330464166">
                <ele>8.789797320870242</ele>
                <time>2012-02-02T11:21:23.448Z</time>
                <name>Am Wall 3, 23909 Ratzeburg, Deutschland</name>
            </trkpt>
            <trkpt lon="10.776652991771698" lat="53.70047472143693">
                <ele>8.991400948507787</ele>
                <time>2012-02-05T19:46:15.914Z</time>
                <name>Am Wall 5, 23909 Ratzeburg, Deutschland</name>
            </trkpt>
            <trkpt lon="10.776449143886566" lat="53.70069702477431">
                <ele>9.356410191328015</ele>
                <time>2012-02-10T09:08:33.343Z</time>
                <name>Am Wall 5, 23909 Ratzeburg, Deutschland</name>
            </trkpt>
            <trkpt lon="10.776261389255524" lat="53.70089392103224">
                <ele>9.54537102543065</ele>
                <time>2012-02-14T10:54:36.975Z</time>
                <name>Am Wall 5, 23909 Ratzeburg, Deutschland</name>
            </trkpt>
            <trkpt lon="10.776127278804779" lat="53.701017774663114">
                <ele>10.015860464267458</ele>
                <time>2012-02-15T03:13:02.759Z</time>
                <name>Brauerstraße 22, 23909 Ratzeburg, Deutschland</name>
            </trkpt>
            <trkpt lon="10.776052176952362" lat="53.70106541057674">
                <ele>10.25326800641744</ele>
                <time>2012-02-18T12:47:14.837Z</time>
                <name>Domstraße 26, 23909 Ratzeburg, Deutschland</name>
            </trkpt>
            <trkpt lon="10.776025354862213" lat="53.70106223485085">
                <ele>10.313830151710814</ele>
                <time>2012-02-19T20:13:44.843Z</time>
                <name>Domstraße 26, 23909 Ratzeburg, Deutschland</name>
            </trkpt>
            <trkpt lon="10.776036083698273" lat="53.701233723706395">
                <ele>10.493867571819006</ele>
                <time>2012-02-21T05:13:18.036Z</time>
                <name>Domstraße 28, 23909 Ratzeburg, Deutschland</name>
            </trkpt>
            <trkpt lon="10.776019990444183" lat="53.70148777998574">
                <ele>10.837358916848185</ele>
                <time>2012-02-22T05:07:07.253Z</time>
                <name>Domhof 5, 23909 Ratzeburg, Deutschland</name>
            </trkpt>
            <trkpt lon="10.775918066501617" lat="53.70152588829535">
                <ele>11.12770635053857</ele>
                <time>2012-02-29T16:17:44.091Z</time>
                <name>Domhof 5, 23909 Ratzeburg, Deutschland</name>
            </trkpt>
            <trkpt lon="10.775708854198456" lat="53.70189744250585">
                <ele>12.419253782386349</ele>
                <time>2012-03-08T04:00:00.374Z</time>
                <name>Domhof 5, 23909 Ratzeburg, Deutschland</name>
            </trkpt>
            <trkpt lon="10.775628387928009" lat="53.702199129408946">
                <ele>13.20143175813278</ele>
                <time>2012-03-25T15:59:02.781Z</time>
                <name>Domhof 12, 23909 Ratzeburg, Deutschland</name>
            </trkpt>
            <trkpt lon="10.7752206921582" lat="53.7022318200527">
                <ele>14.06471600145727</ele>
                <time>2012-04-08T23:59:25.709Z</time>
                <name>Domhof 12, 23909 Ratzeburg, Deutschland</name>
            </trkpt>
            <trkpt lon="10.775199234486081" lat="53.70175864736605">
                <ele>13.835533944936316</ele>
                <time>2012-05-06T19:01:11.235Z</time>
                <name>Domstraße 28, 23909 Ratzeburg, Deutschland</name>
            </trkpt>
            <trkpt lon="10.775129497051694" lat="53.70178405274614">
                <ele>14.077589929364002</ele>
                <time>2012-05-09T15:26:45.730Z</time>
                <name>Domstraße 28, 23909 Ratzeburg, Deutschland</name>
            </trkpt>
            <trkpt lon="10.775049030781247" lat="53.70179357975971">
                <ele>14.341410414045663</ele>
                <time>2012-05-12T12:03:25.698Z</time>
                <name>Domstraße 29, 23909 Ratzeburg, Deutschland</name>
            </trkpt>
            <trkpt lon="10.775016844273068" lat="53.70196506563523">
                <ele>14.45383640043834</ele>
                <time>2012-05-22T15:12:20.037Z</time>
                <name>Domstraße 29, 23909 Ratzeburg, Deutschland</name>
            </trkpt>
            <trkpt lon="10.77486664056778" lat="53.70215467042224">
                <ele>14.179937362670891</ele>
                <time>2012-03-30T20:16:55.422Z</time>
                <name>Domhof 11, 23909 Ratzeburg, Deutschland</name>
            </trkpt>
            <trkpt lon="10.774759352207184" lat="53.70245635547829">
                <ele>13.922445297241204</ele>
                <time>2012-06-16T12:47:20.595Z</time>
                <name>Domhof 11, 23909 Ratzeburg, Deutschland</name>
            </trkpt>
            <trkpt lon="10.774748623371124" lat="53.70266912153847">
                <ele>14.363806794210301</ele>
                <time>2012-04-13T03:52:35.537Z</time>
                <name>Patschengang, 23909 Ratzeburg, Deutschland</name>
            </trkpt>
            <trkpt lon="10.77461451292038" lat="53.70283425266225">
                <ele>14.562581517291246</ele>
                <time>2012-04-17T20:42:40.044Z</time>
                <name>Patschengang, 23909 Ratzeburg, Deutschland</name>
            </trkpt>
            <trkpt lon="10.774448215961456" lat="53.703151810695026">
                <ele>15.257972557798107</ele>
                <time>2012-04-26T09:24:21.135Z</time>
                <name>Domhof 34, 23909 Ratzeburg, Deutschland</name>
            </trkpt>
            <trkpt lon="10.774496495723724" lat="53.70343761087521">
                <ele>15.994848906803083</ele>
                <time>2012-05-03T18:12:50.378Z</time>
                <name>Domhof 32, 23909 Ratzeburg, Deutschland</name>
            </trkpt>
            <trkpt lon="10.774437487125397" lat="53.703698004905114">
                <ele>16.109414854859594</ele>
                <time>2012-05-10T11:56:38.098Z</time>
                <name>Domhof 32, 23909 Ratzeburg, Deutschland</name>
            </trkpt>
            <trkpt lon="10.774426758289337" lat="53.70407906643486">
                <ele>16.37071167267375</ele>
                <time>2012-05-20T06:32:30.341Z</time>
                <name>Domhof 30, 23909 Ratzeburg, Deutschland</name>
            </trkpt>
            <trkpt lon="10.774458944797516" lat="53.70416162931148">
                <ele>16.547961021831703</ele>
                <time>2012-05-26T22:39:01.060Z</time>
                <name>Domhof 30, 23909 Ratzeburg, Deutschland</name>
            </trkpt>
            <trkpt lon="10.77458769083023" lat="53.70415845381925">
                <ele>17.005728504049948</ele>
                <time>2012-06-02T17:27:52.939Z</time>
                <name>Domhof 18A, 23909 Ratzeburg, Deutschland</name>
            </trkpt>
            <trkpt lon="10.774453580379486" lat="53.704164804803504">
                <ele>16.531350887220555</ele>
                <time>2012-06-09T19:27:14.101Z</time>
                <name>Domhof 30, 23909 Ratzeburg, Deutschland</name>
            </trkpt>
            <trkpt lon="10.774416029453278" lat="53.704082241933115">
                <ele>16.33707515776536</ele>
                <time>2012-06-17T21:06:37.459Z</time>
                <name>Domhof 30, 23909 Ratzeburg, Deutschland</name>
            </trkpt>
            <trkpt lon="10.774233639240265" lat="53.70408541743112">
                <ele>15.725429830180824</ele>
                <time>2012-06-27T11:33:54.046Z</time>
                <name>Domhof 30, 23909 Ratzeburg, Deutschland</name>
            </trkpt>
            <trkpt lon="10.774206817150116" lat="53.70372340911445">
                <ele>15.593286365977303</ele>
                <time>2012-07-28T19:15:50.861Z</time>
                <name>Domhof 32, 23909 Ratzeburg, Deutschland</name>
            </trkpt>
            <trkpt lon="10.774233639240265" lat="53.703482068506595">
                <ele>15.60905527905109</ele>
                <time>2012-08-19T06:18:27.700Z</time>
                <name>Domhof 32, 23909 Ratzeburg, Deutschland</name>
            </trkpt>
            <trkpt lon="10.774212181568146" lat="53.7032026197578">
                <ele>15.092616168204708</ele>
                <time>2012-09-13T02:00:06.349Z</time>
                <name>Domhof 34, 23909 Ratzeburg, Deutschland</name>
            </trkpt>
            <trkpt lon="10.774233639240265" lat="53.70307242141161">
                <ele>14.66624664786831</ele>
                <time>2012-09-24T16:34:38.217Z</time>
                <name>Domhof 34, 23909 Ratzeburg, Deutschland</name>
            </trkpt>
            <trkpt lon="10.774298012256622" lat="53.702996207558655">
                <ele>14.507725095726554</ele>
                <time>2012-10-02T06:06:47.303Z</time>
                <name>Domhof 34, 23909 Ratzeburg, Deutschland</name>
            </trkpt>
            <trkpt lon="10.774142444133759" lat="53.70274533598434">
                <ele>13.25838395676752</ele>
                <time>2012-10-25T23:31:55.667Z</time>
                <name>Domhof 35, 23909 Ratzeburg, Deutschland</name>
            </trkpt>
            <trkpt lon="10.774072706699371" lat="53.7026913507665">
                <ele>12.711964707444295</ele>
                <time>2012-10-31T18:59:28.059Z</time>
                <name>Domhof 35, 23909 Ratzeburg, Deutschland</name>
            </trkpt>
            <trkpt lon="10.773981511592865" lat="53.702684999559864">
                <ele>12.227928866951093</ele>
                <time>2012-11-06T10:33:23.759Z</time>
                <name>Domhof 35, 23909 Ratzeburg, Deutschland</name>
            </trkpt>
            <trkpt lon="10.773686468601227" lat="53.70206257665808">
                <ele>10.497521059187031</ele>
                <time>2013-01-11T13:49:10.115Z</time>
                <name>Domhof 992, 23909 Ratzeburg, Deutschland</name>
            </trkpt>
            <trkpt lon="10.77333778142929" lat="53.70196413137639">
                <ele>9.160960832040017</ele>
                <time>2013-02-03T13:42:53.973Z</time>
                <name>Domhof 37-41, 23909 Ratzeburg, Deutschland</name>
            </trkpt>
            <trkpt lon="10.773241221904755" lat="53.70193555044504">
                <ele>8.881403190349717</ele>
                <time>2013-02-09T23:56:19.291Z</time>
                <name>Domhof 37-41, 23909 Ratzeburg, Deutschland</name>
            </trkpt>
            <trkpt lon="10.773021280765533" lat="53.70183075353066">
                <ele>8.253439886371895</ele>
                <time>2013-02-26T19:05:31.989Z</time>
                <name>Domhof 37, 23909 Ratzeburg, Deutschland</name>
            </trkpt>
            <trkpt lon="10.7728710770607" lat="53.70183075353066">
                <ele>7.748197444005434</ele>
                <time>2013-03-07T17:46:13.989Z</time>
                <name>Domhof 37, 23909 Ratzeburg, Deutschland</name>
            </trkpt>
            <trkpt lon="10.772651135921478" lat="53.70169737526218">
                <ele>7.037406029814436</ele>
                <time>2013-03-26T11:14:33.702Z</time>
                <name>Domhof 41, 23909 Ratzeburg, Deutschland</name>
            </trkpt>
            <trkpt lon="10.772334635257721" lat="53.701417914662336">
                <ele>7.477168388580956</ele>
                <time>2013-04-29T06:14:45.183Z</time>
                <name>Kleine Kreuzstraße 17, 23909 Ratzeburg, Deutschland</name>
            </trkpt>
            <trkpt lon="10.772227346897125" lat="53.70137345485107">
                <ele>7.374661526059969</ele>
                <time>2013-05-07T01:16:47.190Z</time>
                <name>Reeperbahn 14, 23909 Ratzeburg, Deutschland</name>
            </trkpt>
            <trkpt lon="10.771733820438385" lat="53.701567172259765">
                <ele>5.038591420074458</ele>
                <time>2013-06-10T22:40:35.565Z</time>
                <name>Reeperbahn 14, 23909 Ratzeburg, Deutschland</name>
            </trkpt>
            <trkpt lon="10.771567523479462" lat="53.701605280497525">
                <ele>4.483046559619758</ele>
                <time>2013-06-21T09:15:58.505Z</time>
                <name>Reeperbahn 14, 23909 Ratzeburg, Deutschland</name>
            </trkpt>
            <trkpt lon="10.77137976884842" lat="53.701446495945966">
                <ele>4.604059830729163</ele>
                <time>2013-07-12T06:15:57.746Z</time>
                <name>Reeperbahn 14, 23909 Ratzeburg, Deutschland</name>
            </trkpt>
            <trkpt lon="10.771277844905853" lat="53.70135122492747">
                <ele>4.702418035151929</ele>
                <time>2013-07-22T05:50:02.016Z</time>
                <name>Reeperbahn 14, 23909 Ratzeburg, Deutschland</name>
            </trkpt>
            <trkpt lon="10.771009624004364" lat="53.70106541057799">
                <ele>5.08761952971269</ele>
                <time>2013-08-19T06:31:15.595Z</time>
                <name>Reeperbahn 6, 23909 Ratzeburg, Deutschland</name>
            </trkpt>
            <trkpt lon="10.770660936832428" lat="53.70072560654802">
                <ele>5.267189023871827</ele>
                <time>2013-09-22T08:35:09.263Z</time>
                <name>Reeperbahn 4A, 23909 Ratzeburg, Deutschland</name>
            </trkpt>
            <trkpt lon="10.7706019282341" lat="53.70065573995883">
                <ele>5.306277790962161</ele>
                <time>2013-09-29T01:16:52.746Z</time>
                <name>Reeperbahn 4A, 23909 Ratzeburg, Deutschland</name>
            </trkpt>
            <trkpt lon="10.770510733127594" lat="53.7005922247771">
                <ele>5.206630061790014</ele>
                <time>2013-10-06T04:51:37.236Z</time>
                <name>Reeperbahn 5, 23909 Ratzeburg, Deutschland</name>
            </trkpt>
            <trkpt lon="10.770285427570343" lat="53.700493776055986">
                <ele>4.749945451687216</ele>
                <time>2013-10-19T04:54:56.727Z</time>
                <name>Reeperbahn 5, 23909 Ratzeburg, Deutschland</name>
            </trkpt>
            <trkpt lon="10.769834816455841" lat="53.70044613949536">
                <ele>4.078097001941855</ele>
                <time>2013-11-09T12:28:12.782Z</time>
                <name>Barlachblick, 23909 Ratzeburg, Deutschland</name>
            </trkpt>
            <trkpt lon="10.769673883914948" lat="53.70045249103988">
                <ele>4.228724793978085</ele>
                <time>2013-11-17T00:43:58.300Z</time>
                <name>Barlachblick, 23909 Ratzeburg, Deutschland</name>
            </trkpt>
            <trkpt lon="10.769394934177399" lat="53.70042390908195">
                <ele>4.687385734783883</ele>
                <time>2013-11-30T05:06:51.611Z</time>
                <name>Barlachblick, 23909 Ratzeburg, Deutschland</name>
            </trkpt>
            <trkpt lon="10.76936811208725" lat="53.700379448219884">
                <ele>4.959983417278785</ele>
                <time>2013-12-03T22:03:24.691Z</time>
                <name>Barlachblick, 23909 Ratzeburg, Deutschland</name>
            </trkpt>
            <trkpt lon="10.768654644489288" lat="53.70030322948997">
                <ele>5.680623060190841</ele>
                <time>2014-01-30T18:52:09.563Z</time>
                <name>Barlachblick, 23909 Ratzeburg, Deutschland</name>
            </trkpt>
            <trkpt lon="10.768139660358429" lat="53.70023971377626">
                <ele>5.829309772538155</ele>
                <time>2014-03-11T18:32:31.040Z</time>
                <name>Barlachblick, 23909 Ratzeburg, Deutschland</name>
            </trkpt>
            <trkpt lon="10.768182575702667" lat="53.70010633046544">
                <ele>6.681108050572876</ele>
                <time>2014-03-30T12:42:22.899Z</time>
                <name>Barlachblick, 23909 Ratzeburg, Deutschland</name>
            </trkpt>
            <trkpt lon="10.768322050571442" lat="53.6999951773835">
                <ele>7.492091117721735</ele>
                <time>2014-04-15T11:26:55.986Z</time>
                <name>Barlachblick, 23909 Ratzeburg, Deutschland</name>
            </trkpt>
            <trkpt lon="10.768402516841888" lat="53.69985861748099">
                <ele>7.697829278304665</ele>
                <time>2014-05-03T10:58:15.240Z</time>
                <name>Barlachblick, 23909 Ratzeburg, Deutschland</name>
            </trkpt>
            <trkpt lon="10.768305957317352" lat="53.69967441970132">
                <ele>7.832175435837684</ele>
                <time>2014-05-28T06:07:22.928Z</time>
                <name>Barlachblick, 23909 Ratzeburg, Deutschland</name>
            </trkpt>
            <trkpt lon="10.768091380596161" lat="53.69951880370751">
                <ele>7.451783197334356</ele>
                <time>2014-06-21T12:39:45.182Z</time>
                <name>Barlachblick, 23909 Ratzeburg, Deutschland</name>
            </trkpt>
            <trkpt lon="10.768053829669952" lat="53.6993727146999">
                <ele>7.412391770698207</ele>
                <time>2014-07-09T08:48:00.533Z</time>
                <name>Barlachblick, 23909 Ratzeburg, Deutschland</name>
            </trkpt>
            <trkpt lon="10.76784998178482" lat="53.69929014242784">
                <ele>6.783648249002792</ele>
                <time>2014-07-27T01:07:36.822Z</time>
                <name>Lüneburger Damm, 23909 Ratzeburg, Deutschland</name>
            </trkpt>
            <trkpt lon="10.767587125301361" lat="53.699223449320826">
                <ele>5.867542317026174</ele>
                <time>2014-08-16T12:36:52.831Z</time>
                <name>Lüneburger Damm, 23909 Ratzeburg, Deutschland</name>
            </trkpt>
            <trkpt lon="10.767157971858978" lat="53.69907100753601">
                <ele>4.79392341833252</ele>
                <time>2014-09-21T08:30:57.255Z</time>
                <name>Lüneburger Damm, 23909 Ratzeburg, Deutschland</name>
            </trkpt>
            <trkpt lon="10.767184793949127" lat="53.69904877639652">
                <ele>4.884973802077093</ele>
                <time>2014-09-24T15:43:44.445Z</time>
                <name>Lüneburger Damm, 23909 Ratzeburg, Deutschland</name>
            </trkpt>
            <trkpt lon="10.767571032047272" lat="53.69902336936529">
                <ele>5.898357473853852</ele>
                <time>2014-10-22T11:50:08.357Z</time>
                <name>Seminarweg 6, 23909 Ratzeburg, Deutschland</name>
            </trkpt>
            <trkpt lon="10.767812430858612" lat="53.698988434672295">
                <ele>6.678256180152346</ele>
                <time>2014-11-09T07:01:23.310Z</time>
                <name>Seminarweg 6, 23909 Ratzeburg, Deutschland</name>
            </trkpt>
            <trkpt lon="10.768155753612518" lat="53.69884869561038">
                <ele>7.641767546361239</ele>
                <time>2015-01-09T12:12:55.166Z</time>
                <name>Seminarweg 6, 23909 Ratzeburg, Deutschland</name>
            </trkpt>
            <trkpt lon="10.768552720546722" lat="53.69874706691004">
                <ele>8.125332775965685</ele>
                <time>2014-11-01T03:31:37.498Z</time>
                <name>Seminarweg 6, 23909 Ratzeburg, Deutschland</name>
            </trkpt>
            <trkpt lon="10.768488347530365" lat="53.698620030690144">
                <ele>7.8500099253410305</ele>
                <time>2014-12-07T00:15:44.416Z</time>
                <name>Seminarweg 6, 23909 Ratzeburg, Deutschland</name>
            </trkpt>
            <trkpt lon="10.768402516841888" lat="53.69801977936398">
                <ele>5.974395896363052</ele>
                <time>2015-05-19T12:48:53.794Z</time>
                <name>Promenade, 23909 Ratzeburg, Deutschland</name>
            </trkpt>
            <trkpt lon="10.767522752285004" lat="53.69834690151842">
                <ele>6.511909996677069</ele>
                <time>2015-11-01T19:56:58.970Z</time>
                <name>Promenade, 23909 Ratzeburg, Deutschland</name>
            </trkpt>
            <trkpt lon="10.766905844211578" lat="53.69857874383604">
                <ele>4.779533504542906</ele>
                <time>2016-02-29T19:12:08.743Z</time>
                <name>Promenade, 23909 Ratzeburg, Deutschland</name>
            </trkpt>
            <trkpt lon="10.767077505588531" lat="53.698775650007015">
                <ele>4.955233404057731</ele>
                <time>2016-07-09T15:35:10.305Z</time>
                <name>Lüneburger Damm, 23909 Ratzeburg, Deutschland</name>
            </trkpt>
            <trkpt lon="10.76709896326065" lat="53.69885822328843">
                <ele>4.907643879442299</ele>
                <time>2016-08-01T01:29:58.814Z</time>
                <name>Lüneburger Damm, 23909 Ratzeburg, Deutschland</name>
            </trkpt>
            <trkpt lon="10.766943395137787" lat="53.69903924876162">
                <ele>4.317049816742065</ele>
                <time>2016-09-02T15:23:06.135Z</time>
                <name>Lüneburger Damm, 23909 Ratzeburg, Deutschland</name>
            </trkpt>
            <trkpt lon="10.766482055187225" lat="53.69923615277825">
                <ele>3.9532115522636952</ele>
                <time>2016-10-08T15:53:45.807Z</time>
                <name>Lüneburger Damm, 23909 Ratzeburg, Deutschland</name>
            </trkpt>
            <trkpt lon="10.76635062694595" lat="53.699117992035376">
                <ele>3.915505534102694</ele>
                <time>2016-10-23T10:07:08.968Z</time>
                <name>Schloßwiese 1, 23909 Ratzeburg, Deutschland</name>
            </trkpt>
            <trkpt lon="10.766283571720123" lat="53.699124997398194">
                <ele>3.9867299259231452</ele>
                <time>2017-02-28T10:32:52.619Z</time>
                <name>Schloßwiese 1, 23909 Ratzeburg, Deutschland</name>
            </trkpt>
            <trkpt lon="10.765425264835358" lat="53.69921074586012">
                <ele>5.095472261861362</ele>
                <time>2017-12-28T03:35:23.446Z</time>
                <name>Schloßwiese 1, 23909 Ratzeburg, Deutschland</name>
            </trkpt>
            <trkpt lon="10.763998329639435" lat="53.69958549634722">
                <ele>5.498951347857505</ele>
                <time>2019-06-23T20:21:09.106Z</time>
                <name>Schloßwiese 7, 23909 Ratzeburg, Deutschland</name>
            </trkpt>
            <trkpt lon="10.76385349035263" lat="53.69962995804831">
                <ele>5.457946941625164</ele>
                <time>2019-08-19T13:28:36.606Z</time>
                <name>Schloßwiese 7, 23909 Ratzeburg, Deutschland</name>
            </trkpt>
            <trkpt lon="10.763783752918243" lat="53.69954103459979">
                <ele>5.546646687850576</ele>
                <time>2019-10-16T01:03:53.650Z</time>
                <name>Lüneburger Damm 7, 23909 Ratzeburg, Deutschland</name>
            </trkpt>
            <trkpt lon="10.762233436107635" lat="53.69961725471002">
                <ele>4.812376801010917</ele>
                <time>2021-04-09T01:40:38.746Z</time>
                <name>Lüneburger Damm 900, 23909 Ratzeburg, Deutschland</name>
            </trkpt>
            <trkpt lon="10.761578977108002" lat="53.699623606379646">
                <ele>4.537357544359704</ele>
                <time>2021-11-22T17:04:05.148Z</time>
                <name>Lüneburger Damm 900, 23909 Ratzeburg, Deutschland</name>
            </trkpt>
            <trkpt lon="10.76137512922287" lat="53.69957596883412">
                <ele>4.6841976241107</ele>
                <time>2022-02-06T21:44:19.849Z</time>
                <name>Lüneburger Damm, 23909 Ratzeburg, Deutschland</name>
            </trkpt>
            <trkpt lon="10.761305391788483" lat="53.69945211096351">
                <ele>4.921564660212917</ele>
                <time>2022-04-24T10:33:39.420Z</time>
                <name>Lüneburger Damm 11, 23909 Ratzeburg, Deutschland</name>
            </trkpt>
            <trkpt lon="10.761235654354095" lat="53.69932190101412">
                <ele>5.245387356992127</ele>
                <time>2022-07-22T12:24:06.403Z</time>
                <name>Möllner Straße, 23909 Ratzeburg, Deutschland</name>
            </trkpt>
            <trkpt lon="10.761176645755768" lat="53.69916945958589">
                <ele>5.670137882449327</ele>
                <time>2022-10-13T13:10:25.674Z</time>
                <name>Möllner Straße 4-6, 23909 Ratzeburg, Deutschland</name>
            </trkpt>
            <trkpt lon="10.76110154390335" lat="53.699032896998915">
                <ele>6.068483185187846</ele>
                <time>2022-12-28T19:21:44.502Z</time>
                <name>Möllner Straße 4-6, 23909 Ratzeburg, Deutschland</name>
            </trkpt>
            <trkpt lon="10.760962069034576" lat="53.69885822328886">
                <ele>6.618345421717613</ele>
                <time>2023-04-11T13:01:27.892Z</time>
                <name>Möllner Straße 4-6, 23909 Ratzeburg, Deutschland</name>
            </trkpt>
            <trkpt lon="10.760795772075653" lat="53.69866766931808">
                <ele>7.297174490480665</ele>
                <time>2023-08-04T09:41:29.251Z</time>
                <name>Möllner Straße 5, 23909 Ratzeburg, Deutschland</name>
            </trkpt>
            <trkpt lon="10.760543644428253" lat="53.69841359601506">
                <ele>8.827673266393283</ele>
                <time>2024-01-09T05:25:25.316Z</time>
                <name>Möllner Straße 5, 23909 Ratzeburg, Deutschland</name>
            </trkpt>
            <trkpt lon="10.759985744953156" lat="53.697924500588904">
                <ele>10.655971481111802</ele>
                <time>2024-11-20T08:32:02.413Z</time>
                <name>Möllner Straße 13, 23909 Ratzeburg, Deutschland</name>
            </trkpt>
            <trkpt lon="10.759240090847015" lat="53.69737505544223">
                <ele>15.186411500490513</ele>
                <time>2025-11-29T15:57:15.885Z</time>
                <name>Möllner Straße 15, 23909 Ratzeburg, Deutschland</name>
            </trkpt>
            <trkpt lon="10.759030878543854" lat="53.697092390116275">
                <ele>15.929987709586888</ele>
                <time>2026-09-19T07:31:29.530Z</time>
                <name>Möllner Straße 23, 23909 Ratzeburg, Deutschland</name>
            </trkpt>
            <trkpt lon="10.758848488330841" lat="53.69686053961158">
                <ele>16.952019788566872</ele>
                <time>2027-04-21T08:19:31.551Z</time>
                <name>Möllner Straße 23B, 23909 Ratzeburg, Deutschland</name>
            </trkpt>
            <trkpt lon="10.758800208568573" lat="53.69641589123495">
                <ele>16.036316376776153</ele>
                <time>2028-04-28T01:26:39.378Z</time>
                <name>Möllner Straße 25, 23909 Ratzeburg, Deutschland</name>
            </trkpt>
        </trkseg>
    </trk>
</gpx>
